Bulpitt, Illinois
Current Conditions -  °F | °C
As of 11:15 AM on Sunday 21 Dec 2014 (Local Time) from KTAZ Reporting Station
Overcast Overcast  
Wind Chill: 26°   Ceiling: 2200
Heat Index: 34°   Visibility: 10mi
Dew Point: 30°   Wind: 10mph
Humidity: 87%   Direction: 150°SSE
Pressure: 30.19"   Gusts: NA
Location:  39.59°N, 89.42°W
Report Text: KTAZ 211715Z AUTO 15009KT 10SM OVC022 01/M01 A3019 RMK AO2
Loading
Personal Weather Stations






























Interactive Weather Map New forecast layout! Learn more

10-Day Weather Forecast

Advertisements
Track Severe Weather on mobile